Time;durP1;ratioP1;P1;durP2;ratioP2;P2;SDS_P1;SDS_P2;PMS_P1;PMS_P2;Temp;Humidity;BMP_temperature;BMP_pressure;BME280_temperature;BME280_humidity;BME280_pressure;Samples;Min_cycle;Max_cycle;Signal;HPM_P1;HPM_P2
2024/01/31 00:00:38;;;;;;;2.83;0.32;;;7.50;99.90;;;;;;5092770;28;20052;-85
2024/01/31 00:03:04;;;;;;;3.90;0.68;;;7.50;99.90;;;;;;5084762;28;20411;-86
2024/01/31 00:05:29;;;;;;;2.58;0.40;;;7.50;99.90;;;;;;5078016;28;20124;-88
2024/01/31 00:07:55;;;;;;;2.10;0.40;;;7.50;99.90;;;;;;5074686;28;20111;-88
2024/01/31 00:10:21;;;;;;;2.40;0.60;;;7.50;99.90;;;;;;5075420;28;20033;-88
2024/01/31 00:12:47;;;;;;;5.40;0.95;;;7.50;99.90;;;;;;5080982;28;20086;-87
2024/01/31 00:15:16;;;;;;;1.00;0.30;;;7.50;99.90;;;;;;5090787;28;20027;-87
2024/01/31 00:17:42;;;;;;;3.42;0.60;;;7.50;99.90;;;;;;5092838;28;20051;-87
2024/01/31 00:20:08;;;;;;;3.70;0.50;;;7.50;99.90;;;;;;5092377;28;20492;-88
2024/01/31 00:22:33;;;;;;;1.15;0.47;;;7.50;99.90;;;;;;5094050;28;20036;-86
2024/01/31 00:24:59;;;;;;;2.22;0.47;;;7.50;99.90;;;;;;5113334;28;20039;-88
2024/01/31 00:27:24;;;;;;;3.53;0.75;;;7.50;99.90;;;;;;5084007;28;20039;-88
2024/01/31 00:29:50;;;;;;;2.65;0.35;;;7.60;99.90;;;;;;5090006;28;20016;-87
2024/01/31 00:32:15;;;;;;;1.83;0.65;;;7.60;99.90;;;;;;5088102;28;20111;-86
2024/01/31 00:34:41;;;;;;;2.63;0.47;;;7.50;99.90;;;;;;5092224;28;20062;-87
2024/01/31 00:37:06;;;;;;;5.63;0.60;;;7.50;99.90;;;;;;5092896;28;20032;-87
2024/01/31 00:39:32;;;;;;;1.85;0.60;;;8.20;99.90;;;;;;5075850;28;20031;-86
2024/01/31 00:41:58;;;;;;;6.28;1.20;;;7.40;99.90;;;;;;5075905;28;20174;-87
2024/01/31 00:44:26;;;;;;;3.85;0.60;;;7.30;99.90;;;;;;5073421;28;20489;-87
2024/01/31 00:46:52;;;;;;;2.17;0.60;;;7.30;99.90;;;;;;5073565;28;20031;-86
2024/01/31 00:49:19;;;;;;;2.03;0.77;;;7.30;99.90;;;;;;5072786;28;20386;-86
2024/01/31 00:51:44;;;;;;;2.33;0.50;;;7.30;99.90;;;;;;5076645;28;20029;-87
2024/01/31 00:54:13;;;;;;;5.30;1.40;;;7.20;99.90;;;;;;5078662;28;20027;-84
2024/01/31 00:56:39;;;;;;;5.28;1.85;;;7.30;99.90;;;;;;5075292;28;20035;-86
2024/01/31 00:59:04;;;;;;;7.63;1.15;;;7.20;99.90;;;;;;5080895;28;20032;-85
2024/01/31 01:01:30;;;;;;;5.55;1.17;;;7.20;99.90;;;;;;5082195;28;20032;-84
2024/01/31 01:03:55;;;;;;;2.95;1.13;;;7.20;99.90;;;;;;5087118;28;20032;-85
2024/01/31 01:06:22;;;;;;;5.25;1.40;;;7.30;99.90;;;;;;5080886;28;20131;-85
2024/01/31 01:08:48;;;;;;;8.07;2.17;;;7.50;99.90;;;;;;5078583;28;20464;-86
2024/01/31 01:11:13;;;;;;;3.00;1.10;;;7.30;99.90;;;;;;5090668;28;20124;-86
2024/01/31 01:13:42;;;;;;;3.53;1.50;;;7.40;99.90;;;;;;5093133;28;20085;-88
2024/01/31 01:16:07;;;;;;;4.65;1.38;;;7.40;99.90;;;;;;5082842;28;20043;-90
2024/01/31 01:18:33;;;;;;;4.30;1.55;;;7.40;99.90;;;;;;5104709;28;20004;-87
2024/01/31 01:20:58;;;;;;;4.18;1.50;;;7.40;99.90;;;;;;5098763;28;20131;-87
2024/01/31 01:23:24;;;;;;;3.28;1.75;;;7.50;99.90;;;;;;5080072;28;20063;-87
2024/01/31 01:25:49;;;;;;;5.65;1.10;;;7.40;99.90;;;;;;5090522;28;20519;-86
2024/01/31 01:28:15;;;;;;;6.53;1.02;;;7.50;99.90;;;;;;5091411;28;20020;-88
2024/01/31 01:30:40;;;;;;;8.45;1.42;;;7.50;99.90;;;;;;5094267;28;20020;-86
2024/01/31 01:33:06;;;;;;;4.72;1.30;;;7.40;99.90;;;;;;5081930;28;20067;-84
2024/01/31 01:35:32;;;;;;;5.05;1.50;;;7.40;99.90;;;;;;5090293;28;20052;-85
2024/01/31 01:37:57;;;;;;;4.65;1.70;;;7.40;99.90;;;;;;5090097;28;20028;-84
2024/01/31 01:40:23;;;;;;;6.28;1.92;;;7.40;99.90;;;;;;5091661;28;20027;-86
2024/01/31 01:42:48;;;;;;;4.38;2.15;;;7.40;99.90;;;;;;5077983;28;20036;-86
2024/01/31 01:45:14;;;;;;;2.67;1.60;;;7.40;99.90;;;;;;5077151;28;20480;-86
2024/01/31 01:47:43;;;;;;;4.30;1.55;;;7.50;99.90;;;;;;5086494;28;20363;-86
2024/01/31 01:50:10;;;;;;;7.53;1.60;;;7.50;99.90;;;;;;5092535;28;20368;-87
2024/01/31 01:52:37;;;;;;;3.97;1.48;;;7.60;99.90;;;;;;5092115;28;20056;-87
2024/01/31 01:55:03;;;;;;;4.68;1.60;;;7.50;99.90;;;;;;5093355;28;20048;-87
2024/01/31 01:57:33;;;;;;;5.10;1.52;;;7.50;99.90;;;;;;5089913;28;20039;-86
2024/01/31 01:59:59;;;;;;;6.85;1.60;;;8.10;99.90;;;;;;5089473;28;20495;-88
2024/01/31 02:02:26;;;;;;;5.97;1.60;;;7.50;99.90;;;;;;5091746;28;20119;-87
2024/01/31 02:04:51;;;;;;;2.85;0.90;;;7.50;99.90;;;;;;5090405;28;20089;-87
2024/01/31 02:07:24;;;;;;;9.68;1.88;;;7.60;99.90;;;;;;5087135;28;20471;-87
2024/01/31 02:09:51;;;;;;;2.28;1.10;;;8.40;99.90;;;;;;5084475;28;20027;-87
2024/01/31 02:12:16;;;;;;;1.73;0.90;;;7.70;99.90;;;;;;5098529;28;20016;-86
2024/01/31 02:14:44;;;;;;;10.75;1.48;;;7.60;99.90;;;;;;5105407;28;20065;-87
2024/01/31 02:17:10;;;;;;;3.67;1.23;;;7.70;99.90;;;;;;5092265;28;20020;-86
2024/01/31 02:19:36;;;;;;;6.75;1.65;;;7.70;99.90;;;;;;5091716;28;20028;-86
2024/01/31 02:22:05;;;;;;;7.22;1.88;;;7.70;99.90;;;;;;5086296;28;20666;-86
2024/01/31 02:24:30;;;;;;;4.25;1.00;;;7.70;99.90;;;;;;5090245;28;20462;-87
2024/01/31 02:26:56;;;;;;;8.07;1.30;;;8.00;99.90;;;;;;5090463;28;20056;-86
2024/01/31 02:29:22;;;;;;;5.75;1.83;;;7.80;99.90;;;;;;5091945;28;20024;-87
2024/01/31 02:31:47;;;;;;;3.45;1.67;;;7.80;99.90;;;;;;5090730;28;20448;-87
2024/01/31 02:34:13;;;;;;;2.47;1.02;;;7.70;99.90;;;;;;5081937;28;20020;-86
2024/01/31 02:36:38;;;;;;;4.10;1.58;;;7.80;99.90;;;;;;5090659;28;20024;-85
2024/01/31 02:39:04;;;;;;;2.70;1.25;;;7.80;99.90;;;;;;5092117;28;20417;-86
2024/01/31 02:41:29;;;;;;;6.85;0.77;;;7.80;99.90;;;;;;5090620;28;20482;-85
2024/01/31 02:43:55;;;;;;;3.53;1.23;;;7.80;99.90;;;;;;5090215;28;20028;-85
2024/01/31 02:46:20;;;;;;;5.82;0.80;;;7.80;99.90;;;;;;5087753;28;20020;-85
2024/01/31 02:48:46;;;;;;;2.90;1.30;;;7.80;99.90;;;;;;5085566;28;20119;-86
2024/01/31 02:51:12;;;;;;;7.15;1.38;;;7.80;99.90;;;;;;5069992;28;20427;-87
2024/01/31 02:53:37;;;;;;;5.53;1.02;;;7.80;99.90;;;;;;5071558;28;20098;-86
2024/01/31 02:56:03;;;;;;;3.13;1.02;;;7.80;99.90;;;;;;5078776;28;20036;-86
2024/01/31 02:58:28;;;;;;;4.15;1.05;;;7.90;99.90;;;;;;5083887;28;20030;-87
2024/01/31 03:00:54;;;;;;;4.15;0.80;;;7.80;99.90;;;;;;5089553;28;20046;-87
2024/01/31 03:03:21;;;;;;;3.40;1.25;;;7.80;99.90;;;;;;5090587;28;20059;-87
2024/01/31 03:05:47;;;;;;;6.45;1.52;;;7.70;99.90;;;;;;5087584;28;20028;-86
2024/01/31 03:08:13;;;;;;;2.72;0.90;;;7.70;99.90;;;;;;5075219;28;20102;-87
2024/01/31 03:10:43;;;;;;;4.93;0.85;;;7.80;99.90;;;;;;5091563;28;20024;-88
2024/01/31 03:13:11;;;;;;;5.80;0.98;;;7.70;99.90;;;;;;5090759;28;20094;-86
2024/01/31 03:15:37;;;;;;;1.10;0.73;;;7.70;99.90;;;;;;5092704;28;20107;-86
2024/01/31 03:18:03;;;;;;;2.13;0.70;;;7.80;99.90;;;;;;5086322;28;20107;-87
2024/01/31 03:20:28;;;;;;;2.95;0.90;;;7.80;99.90;;;;;;5097837;28;20115;-87
2024/01/31 03:22:54;;;;;;;4.30;0.75;;;7.80;99.90;;;;;;5102908;28;20020;-88
2024/01/31 03:25:19;;;;;;;5.03;0.85;;;7.80;99.90;;;;;;5100303;28;20463;-87
2024/01/31 03:27:45;;;;;;;4.45;1.30;;;7.90;99.90;;;;;;5092093;28;20398;-89
2024/01/31 03:30:11;;;;;;;3.22;0.90;;;7.90;99.90;;;;;;5082121;28;20573;-88
2024/01/31 03:32:36;;;;;;;4.47;0.98;;;7.90;99.90;;;;;;5074366;28;20017;-89
2024/01/31 03:35:02;;;;;;;4.15;1.00;;;8.80;99.90;;;;;;5074597;28;20037;-87
2024/01/31 03:37:27;;;;;;;4.10;0.80;;;7.90;99.90;;;;;;5077754;28;20050;-88
2024/01/31 03:39:54;;;;;;;2.72;0.95;;;7.90;99.90;;;;;;5080623;28;20059;-87
2024/01/31 03:42:19;;;;;;;1.65;0.90;;;7.90;99.90;;;;;;5082835;28;20024;-87
2024/01/31 03:44:45;;;;;;;3.97;1.00;;;7.90;99.90;;;;;;5091892;28;20031;-87
2024/01/31 03:47:10;;;;;;;3.25;1.00;;;7.80;99.90;;;;;;5094807;28;20016;-86
2024/01/31 03:49:36;;;;;;;3.25;0.85;;;7.90;99.90;;;;;;5094813;28;20028;-86
2024/01/31 03:52:02;;;;;;;3.40;0.90;;;7.80;99.90;;;;;;5094284;28;20044;-86
2024/01/31 03:54:28;;;;;;;2.65;0.85;;;7.90;99.90;;;;;;5086527;28;20024;-86
2024/01/31 03:56:53;;;;;;;5.53;1.08;;;7.90;99.90;;;;;;5090396;28;20487;-86
2024/01/31 03:59:19;;;;;;;1.40;0.85;;;7.80;99.90;;;;;;5092325;28;20047;-86
2024/01/31 04:01:48;;;;;;;2.45;1.08;;;7.80;99.90;;;;;;5104513;28;20035;-88
2024/01/31 04:04:13;;;;;;;4.38;1.17;;;7.80;99.90;;;;;;5105676;28;20040;-86
2024/01/31 04:06:39;;;;;;;7.15;1.38;;;7.80;99.90;;;;;;5086632;28;20077;-85
2024/01/31 04:09:05;;;;;;;2.45;1.65;;;7.80;99.90;;;;;;5091867;28;20030;-86
2024/01/31 04:11:34;;;;;;;2.42;1.10;;;7.80;99.90;;;;;;5092507;28;20034;-88
2024/01/31 04:14:01;;;;;;;2.50;1.35;;;7.90;99.90;;;;;;5092977;28;20036;-87
2024/01/31 04:16:27;;;;;;;4.38;1.30;;;7.90;99.90;;;;;;5082098;28;20372;-88
2024/01/31 04:18:52;;;;;;;8.40;1.55;;;7.90;99.90;;;;;;5090666;28;20047;-88
2024/01/31 04:21:22;;;;;;;4.80;1.50;;;7.90;99.90;;;;;;5094804;28;20085;-88
2024/01/31 04:23:48;;;;;;;4.50;1.42;;;7.90;99.90;;;;;;5096213;28;20036;-90
2024/01/31 04:26:13;;;;;;;3.85;1.48;;;7.90;99.90;;;;;;5089475;28;20016;-87
2024/01/31 04:28:39;;;;;;;3.10;1.40;;;7.90;99.90;;;;;;5092645;28;20020;-86
2024/01/31 04:31:11;;;;;;;7.60;1.67;;;7.80;99.90;;;;;;5093748;28;20494;-87
2024/01/31 04:33:36;;;;;;;3.60;1.52;;;7.90;99.90;;;;;;5093436;28;20047;-88
2024/01/31 04:36:02;;;;;;;4.90;1.13;;;7.80;99.90;;;;;;5093072;28;20107;-88
2024/01/31 04:38:27;;;;;;;3.88;1.42;;;7.80;99.90;;;;;;5088331;28;20325;-87
2024/01/31 04:40:53;;;;;;;2.75;1.27;;;7.80;99.90;;;;;;5091501;28;20070;-88
2024/01/31 04:43:18;;;;;;;4.28;1.50;;;7.90;99.90;;;;;;5092783;28;20471;-88
2024/01/31 04:45:44;;;;;;;5.20;2.00;;;7.90;99.90;;;;;;5093577;28;20494;-88
2024/01/31 04:48:10;;;;;;;3.72;2.25;;;7.80;99.90;;;;;;5087587;28;20024;-89
2024/01/31 04:50:35;;;;;;;8.00;3.17;;;7.90;99.90;;;;;;5084862;28;20111;-89
2024/01/31 04:53:01;;;;;;;8.85;3.78;;;7.90;99.90;;;;;;5093999;28;20421;-88
2024/01/31 04:55:27;;;;;;;11.98;5.50;;;7.80;99.90;;;;;;5086837;28;20163;-88
2024/01/31 04:57:52;;;;;;;12.48;6.07;;;7.80;99.90;;;;;;5093559;28;20063;-87
2024/01/31 05:00:20;;;;;;;12.32;6.70;;;7.70;99.90;;;;;;5088681;28;20040;-88
2024/01/31 05:02:47;;;;;;;9.90;6.18;;;7.70;99.90;;;;;;5094528;28;20036;-88
2024/01/31 05:05:12;;;;;;;11.10;7.28;;;7.70;99.90;;;;;;5093998;28;20024;-88
2024/01/31 05:07:38;;;;;;;10.27;7.28;;;7.70;99.90;;;;;;5094928;28;20030;-89
2024/01/31 05:10:03;;;;;;;14.85;7.82;;;7.70;99.90;;;;;;5108640;28;20534;-89
2024/01/31 05:12:29;;;;;;;16.13;9.05;;;7.70;99.90;;;;;;5103783;28;20538;-89
2024/01/31 05:14:54;;;;;;;13.13;9.90;;;7.70;99.90;;;;;;5104300;28;20020;-88
2024/01/31 05:17:20;;;;;;;17.05;10.45;;;7.70;99.90;;;;;;5091813;28;20103;-88
2024/01/31 05:19:45;;;;;;;17.13;11.05;;;7.60;99.90;;;;;;5093581;28;20035;-88
2024/01/31 05:22:11;;;;;;;17.83;10.95;;;7.60;99.90;;;;;;5085371;28;20027;-87
2024/01/31 05:24:37;;;;;;;18.75;11.30;;;7.60;99.90;;;;;;5089418;28;20024;-87
2024/01/31 05:27:05;;;;;;;19.15;11.20;;;7.60;99.90;;;;;;5082814;28;20027;-87
2024/01/31 05:29:31;;;;;;;15.23;10.93;;;7.60;99.90;;;;;;5078494;28;20070;-86
2024/01/31 05:31:57;;;;;;;28.88;10.80;;;7.60;99.90;;;;;;5073189;28;20048;-90
2024/01/31 05:34:22;;;;;;;12.85;10.23;;;7.60;99.90;;;;;;5071544;28;20137;-86
2024/01/31 05:36:48;;;;;;;18.25;12.18;;;7.60;99.90;;;;;;5089961;28;20039;-87
2024/01/31 05:39:14;;;;;;;20.95;10.68;;;7.50;99.90;;;;;;5092913;28;20024;-87
2024/01/31 05:41:43;;;;;;;12.85;9.73;;;7.50;99.90;;;;;;5091860;28;20028;-86
2024/01/31 05:44:10;;;;;;;13.93;9.85;;;7.50;99.90;;;;;;5087376;28;20040;-86
2024/01/31 05:46:36;;;;;;;18.88;9.52;;;7.50;99.90;;;;;;5077048;28;20020;-86
2024/01/31 05:49:02;;;;;;;15.68;10.40;;;7.50;99.90;;;;;;5092894;28;20028;-86
2024/01/31 05:51:30;;;;;;;17.92;10.07;;;7.50;99.90;;;;;;5103286;28;20016;-87
2024/01/31 05:53:56;;;;;;;17.00;9.52;;;7.50;99.90;;;;;;5094127;28;20094;-87
2024/01/31 05:56:22;;;;;;;15.80;9.77;;;7.50;99.90;;;;;;5086646;28;20054;-86
2024/01/31 05:58:57;;;;;;;13.68;8.75;;;7.50;99.90;;;;;;5069230;28;20250;-87
2024/01/31 06:01:23;;;;;;;10.68;6.63;;;7.80;99.90;;;;;;5081988;28;20039;-85
2024/01/31 06:03:49;;;;;;;8.60;6.30;;;8.50;99.90;;;;;;5086277;28;20103;-87
2024/01/31 06:06:15;;;;;;;9.63;5.97;;;7.50;99.90;;;;;;5075610;28;20063;-87
2024/01/31 06:08:41;;;;;;;7.07;5.32;;;7.50;99.90;;;;;;5090639;28;20043;-86
2024/01/31 06:11:08;;;;;;;6.50;4.90;;;7.50;99.90;;;;;;5090729;28;20020;-87
2024/01/31 06:13:34;;;;;;;6.65;4.75;;;7.50;99.90;;;;;;5091312;28;20036;-85
2024/01/31 06:16:00;;;;;;;6.35;4.93;;;7.50;99.90;;;;;;5089611;28;20044;-87
2024/01/31 06:18:26;;;;;;;7.00;4.90;;;7.50;99.90;;;;;;5082318;28;20120;-86
2024/01/31 06:20:51;;;;;;;10.05;4.90;;;7.50;99.90;;;;;;5105632;22;20085;-87
2024/01/31 06:23:17;;;;;;;6.78;4.68;;;7.50;99.90;;;;;;5092063;28;20145;-87
2024/01/31 06:25:43;;;;;;;5.70;5.03;;;7.50;99.90;;;;;;5091661;28;20107;-87
2024/01/31 06:28:08;;;;;;;4.75;4.28;;;7.50;99.90;;;;;;5063041;28;20083;-86
2024/01/31 06:30:43;;;;;;;9.07;4.43;;;7.60;99.90;;;;;;5066825;28;20028;-86
2024/01/31 06:33:10;;;;;;;5.43;3.95;;;7.60;99.90;;;;;;5071320;28;20020;-86
2024/01/31 06:35:36;;;;;;;4.30;3.88;;;7.60;99.90;;;;;;5071798;28;20139;-86
2024/01/31 06:38:03;;;;;;;5.72;4.00;;;7.60;99.90;;;;;;5067034;28;20035;-86
2024/01/31 06:40:30;;;;;;;6.97;4.25;;;7.60;99.90;;;;;;5066769;28;20101;-86
2024/01/31 06:42:56;;;;;;;5.30;4.03;;;7.70;99.90;;;;;;5052950;28;20040;-84
2024/01/31 06:45:24;;;;;;;5.57;3.28;;;7.70;99.90;;;;;;5081873;28;20025;-86
2024/01/31 06:47:54;;;;;;;3.65;3.20;;;7.70;99.90;;;;;;5079220;28;20029;-85
2024/01/31 06:50:20;;;;;;;5.43;4.33;;;7.70;99.90;;;;;;5068699;28;20089;-86
2024/01/31 06:52:46;;;;;;;6.88;3.80;;;7.70;99.90;;;;;;5077712;28;20279;-86
2024/01/31 06:55:15;;;;;;;5.15;3.53;;;7.70;99.90;;;;;;5075748;28;20060;-85
2024/01/31 06:57:42;;;;;;;5.10;3.72;;;7.70;99.90;;;;;;5082253;28;20093;-87
2024/01/31 07:00:11;;;;;;;6.55;3.42;;;7.60;99.90;;;;;;5090641;28;20036;-86
2024/01/31 07:02:37;;;;;;;6.88;3.25;;;7.70;99.90;;;;;;5104701;28;20547;-87
2024/01/31 07:05:04;;;;;;;8.68;3.10;;;7.60;99.90;;;;;;5097788;28;20096;-87
2024/01/31 07:07:31;;;;;;;6.65;3.53;;;7.60;99.90;;;;;;5083447;28;20025;-87
2024/01/31 07:09:56;;;;;;;5.95;4.07;;;7.60;99.90;;;;;;5072525;28;20130;-87
2024/01/31 07:12:22;;;;;;;5.07;4.57;;;7.60;99.90;;;;;;5077439;28;20107;-87
2024/01/31 07:14:47;;;;;;;5.80;4.30;;;7.70;99.90;;;;;;5080943;28;20107;-86
2024/01/31 07:17:14;;;;;;;6.72;3.95;;;7.70;99.90;;;;;;5073027;28;20024;-87
2024/01/31 07:19:42;;;;;;;4.05;3.50;;;7.70;99.90;;;;;;5068495;28;20028;-87
2024/01/31 07:22:09;;;;;;;4.30;3.63;;;7.70;99.90;;;;;;5065971;28;20041;-88
2024/01/31 07:24:34;;;;;;;4.25;3.28;;;7.70;99.90;;;;;;5074973;28;20039;-88
2024/01/31 07:27:00;;;;;;;6.07;3.00;;;7.90;99.90;;;;;;5076187;28;20032;-88
2024/01/31 07:29:26;;;;;;;3.72;2.83;;;7.80;99.90;;;;;;5057961;28;20082;-87
2024/01/31 07:31:52;;;;;;;3.55;2.90;;;7.80;99.90;;;;;;5075790;28;20438;-87
2024/01/31 07:34:17;;;;;;;3.65;2.63;;;7.80;99.90;;;;;;5064553;28;20496;-88
2024/01/31 07:36:44;;;;;;;2.30;2.10;;;7.80;99.90;;;;;;5084673;28;20115;-87
2024/01/31 07:39:10;;;;;;;2.58;2.20;;;7.80;99.90;;;;;;5087912;28;20029;-88
2024/01/31 07:41:36;;;;;;;2.28;2.08;;;7.80;99.90;;;;;;5084755;28;20032;-87
2024/01/31 07:44:03;;;;;;;6.60;2.30;;;7.80;99.90;;;;;;5074835;28;20492;-87
2024/01/31 07:46:29;;;;;;;2.13;2.00;;;7.80;99.90;;;;;;5075308;28;20028;-86
2024/01/31 07:48:55;;;;;;;6.03;2.50;;;7.80;99.90;;;;;;5074956;28;20029;-87
2024/01/31 07:51:21;;;;;;;5.10;3.05;;;7.90;99.90;;;;;;5074574;28;20021;-88
2024/01/31 07:53:46;;;;;;;3.15;2.78;;;7.90;99.90;;;;;;5071011;28;20476;-88
2024/01/31 07:56:12;;;;;;;4.15;3.10;;;7.90;99.90;;;;;;5055356;28;20042;-86
2024/01/31 07:58:37;;;;;;;5.88;4.00;;;7.90;99.90;;;;;;5073700;28;20033;-87
2024/01/31 08:01:03;;;;;;;8.23;4.97;;;7.90;99.90;;;;;;5065280;28;20028;-88
2024/01/31 08:03:30;;;;;;;5.15;3.90;;;7.90;99.90;;;;;;5066876;28;20479;-87
2024/01/31 08:05:55;;;;;;;4.43;3.90;;;7.90;99.90;;;;;;5060499;28;20024;-87
2024/01/31 08:08:21;;;;;;;3.47;3.10;;;7.90;99.90;;;;;;5045650;28;20098;-86
2024/01/31 08:10:47;;;;;;;10.27;3.92;;;7.90;99.90;;;;;;5064164;28;20025;-88
2024/01/31 08:13:19;;;;;;;4.28;3.67;;;7.80;99.90;;;;;;5062158;28;20502;-87
2024/01/31 08:15:45;;;;;;;5.20;3.20;;;8.70;99.90;;;;;;5052159;28;20028;-85
2024/01/31 08:18:11;;;;;;;4.50;3.40;;;7.80;99.90;;;;;;5071325;28;20025;-87
2024/01/31 08:20:36;;;;;;;4.75;3.60;;;7.80;99.90;;;;;;5072624;28;20578;-87
2024/01/31 08:23:02;;;;;;;4.53;3.33;;;7.80;99.90;;;;;;5074405;28;20123;-87
2024/01/31 08:25:28;;;;;;;7.57;4.90;;;8.30;99.90;;;;;;5074050;28;20024;-88
2024/01/31 08:27:53;;;;;;;10.48;6.85;;;8.30;99.90;;;;;;5074035;28;20025;-86
2024/01/31 08:30:21;;;;;;;7.30;6.03;;;7.80;99.90;;;;;;5064814;28;20020;-86
2024/01/31 08:32:46;;;;;;;5.00;4.50;;;7.80;99.90;;;;;;5067401;28;20016;-87
2024/01/31 08:35:12;;;;;;;10.50;5.03;;;7.80;99.90;;;;;;5071749;28;20029;-87
2024/01/31 08:37:38;;;;;;;4.75;4.35;;;7.80;99.90;;;;;;5068864;28;20087;-89
2024/01/31 08:40:05;;;;;;;8.20;4.93;;;7.90;99.90;;;;;;5071074;28;20144;-84
2024/01/31 08:42:33;;;;;;;8.73;5.55;;;7.90;99.90;;;;;;5066881;28;20056;-84
2024/01/31 08:44:59;;;;;;;7.07;5.25;;;7.90;99.90;;;;;;5072957;28;20439;-87
2024/01/31 08:47:24;;;;;;;9.45;6.80;;;7.90;99.90;;;;;;5065473;28;20020;-84
2024/01/31 08:49:50;;;;;;;6.38;5.78;;;7.80;99.90;;;;;;5071934;28;20033;-92
2024/01/31 08:52:15;;;;;;;7.15;6.45;;;7.90;99.90;;;;;;5072085;28;20031;-86
2024/01/31 08:54:41;;;;;;;7.68;5.95;;;7.90;99.90;;;;;;5072438;28;20024;-85
2024/01/31 08:57:07;;;;;;;7.30;5.88;;;7.90;99.90;;;;;;5069782;28;20464;-84
2024/01/31 08:59:33;;;;;;;7.43;5.47;;;7.90;99.90;;;;;;5056424;28;20048;-81
2024/01/31 09:01:58;;;;;;;6.90;6.15;;;7.90;99.90;;;;;;5072588;28;20028;-88
2024/01/31 09:04:24;;;;;;;10.63;6.60;;;7.90;99.90;;;;;;5073252;28;20488;-87
2024/01/31 09:06:49;;;;;;;7.07;6.38;;;7.90;99.90;;;;;;5072940;28;20028;-85
2024/01/31 09:09:15;;;;;;;8.90;7.18;;;7.90;99.90;;;;;;5056791;28;20060;-86
2024/01/31 09:11:41;;;;;;;11.23;8.13;;;8.00;99.90;;;;;;5051017;28;20025;-83
2024/01/31 09:14:06;;;;;;;14.32;7.22;;;7.90;99.90;;;;;;5058374;28;20048;-82
2024/01/31 09:16:34;;;;;;;9.13;7.47;;;7.90;99.90;;;;;;5070978;28;20032;-85
2024/01/31 09:19:00;;;;;;;10.65;6.38;;;7.90;99.90;;;;;;5056663;28;20025;-84
2024/01/31 09:21:27;;;;;;;13.73;7.75;;;7.90;99.90;;;;;;5060385;28;20524;-84
2024/01/31 09:23:56;;;;;;;10.40;7.20;;;7.90;99.90;;;;;;5050990;28;20468;-81
2024/01/31 09:26:22;;;;;;;13.05;6.13;;;7.90;99.90;;;;;;5063222;28;20326;-86
2024/01/31 09:28:50;;;;;;;15.55;7.45;;;7.90;99.90;;;;;;5061704;28;20095;-86
2024/01/31 09:31:23;;;;;;;14.63;7.55;;;7.90;99.90;;;;;;5053840;28;20024;-87
2024/01/31 09:33:53;;;;;;;15.98;8.43;;;7.90;99.90;;;;;;5053594;28;20090;-86
2024/01/31 09:36:19;;;;;;;15.63;8.60;;;7.90;99.90;;;;;;5050467;28;20040;-88
2024/01/31 09:38:47;;;;;;;20.05;10.38;;;7.90;99.90;;;;;;5050837;28;20480;-86
2024/01/31 09:41:12;;;;;;;21.08;10.38;;;7.90;99.90;;;;;;5064629;28;20021;-86
2024/01/31 09:43:38;;;;;;;18.80;9.75;;;7.90;99.90;;;;;;5064502;28;20036;-86
2024/01/31 09:46:06;;;;;;;24.35;10.32;;;8.20;99.90;;;;;;5063922;28;20600;-86
2024/01/31 09:48:33;;;;;;;19.30;10.27;;;7.90;99.90;;;;;;5063326;28;20025;-84
2024/01/31 09:51:02;;;;;;;23.70;10.48;;;7.90;99.90;;;;;;5053451;28;20028;-87
2024/01/31 09:53:33;;;;;;;20.20;11.68;;;8.00;99.90;;;;;;5061098;28;20029;-88
2024/01/31 09:55:59;;;;;;;26.23;10.30;;;8.00;99.90;;;;;;5065452;28;20017;-85
2024/01/31 09:58:25;;;;;;;17.55;9.30;;;8.00;99.90;;;;;;5071599;28;20085;-87
2024/01/31 10:00:52;;;;;;;21.00;10.85;;;8.00;99.90;;;;;;5070245;28;20020;-87
2024/01/31 10:03:17;;;;;;;19.88;10.70;;;7.90;99.90;;;;;;5071695;28;20138;-87
2024/01/31 10:05:44;;;;;;;19.42;9.88;;;8.00;99.90;;;;;;5068249;28;20040;-86
2024/01/31 10:08:10;;;;;;;19.02;10.40;;;7.90;99.90;;;;;;5069265;28;20525;-87
2024/01/31 10:10:39;;;;;;;19.98;9.20;;;7.90;99.90;;;;;;5070689;28;20020;-87
2024/01/31 10:13:09;;;;;;;18.42;10.23;;;8.00;99.90;;;;;;5070280;28;20025;-86
2024/01/31 10:15:35;;;;;;;16.73;10.13;;;7.90;99.90;;;;;;5069764;28;20035;-87
2024/01/31 10:18:02;;;;;;;18.90;10.30;;;8.00;99.90;;;;;;5069789;28;20042;-86
2024/01/31 10:20:27;;;;;;;18.52;10.20;;;8.00;99.90;;;;;;5077390;28;20046;-86
2024/01/31 10:22:53;;;;;;;19.33;11.02;;;8.00;99.90;;;;;;5086583;28;20057;-86
2024/01/31 10:25:18;;;;;;;21.00;10.88;;;8.00;99.90;;;;;;5073488;28;20056;-87
2024/01/31 10:27:46;;;;;;;19.80;11.35;;;8.00;99.90;;;;;;5071549;28;20027;-86
2024/01/31 10:30:13;;;;;;;23.50;11.93;;;8.00;99.90;;;;;;5052902;28;20040;-84
2024/01/31 10:32:40;;;;;;;20.73;11.43;;;8.00;99.90;;;;;;5058804;28;20025;-88
2024/01/31 10:35:07;;;;;;;25.10;13.45;;;8.00;99.90;;;;;;5066069;28;20039;-88
2024/01/31 10:37:34;;;;;;;24.60;13.00;;;8.00;99.90;;;;;;5081074;28;20070;-91
2024/01/31 10:40:00;;;;;;;25.98;12.18;;;8.00;99.90;;;;;;5083057;28;20111;-84
2024/01/31 10:42:28;;;;;;;23.05;12.55;;;8.00;99.90;;;;;;5076020;28;20052;-86
2024/01/31 10:44:54;;;;;;;24.30;13.75;;;8.00;99.90;;;;;;5070669;28;20023;-87
2024/01/31 10:47:20;;;;;;;26.15;14.68;;;8.00;99.90;;;;;;5074861;28;20020;-85
2024/01/31 10:49:51;;;;;;;25.33;14.32;;;8.00;99.90;;;;;;5067118;28;20047;-83
2024/01/31 10:52:20;;;;;;;24.55;15.20;;;8.50;99.90;;;;;;5071830;28;20111;-88
2024/01/31 10:54:52;;;;;;;30.30;15.45;;;8.00;99.90;;;;;;5079084;28;20135;-88
2024/01/31 10:57:18;;;;;;;29.23;16.17;;;8.00;99.90;;;;;;5073383;28;20451;-85
2024/01/31 10:59:45;;;;;;;33.47;16.55;;;8.00;99.90;;;;;;5056079;28;20028;-92
2024/01/31 11:02:14;;;;;;;25.58;15.23;;;9.10;99.90;;;;;;5062650;28;20567;-87
2024/01/31 11:04:40;;;;;;;30.00;16.45;;;8.90;99.90;;;;;;5069622;28;20048;-89
2024/01/31 11:07:06;;;;;;;29.45;16.42;;;8.00;99.90;;;;;;5069139;28;20017;-88
2024/01/31 11:09:31;;;;;;;29.48;15.65;;;8.00;99.90;;;;;;5073386;28;20024;-88
2024/01/31 11:12:11;;;;;;;38.67;18.17;;;8.00;99.90;;;;;;5071244;28;20055;-91
2024/01/31 11:14:38;;;;;;;34.03;17.52;;;8.00;99.90;;;;;;5082653;28;20017;-91
2024/01/31 11:17:13;;;;;;;30.10;16.17;;;8.00;99.90;;;;;;5081198;28;20025;-88
2024/01/31 11:19:48;;;;;;;30.50;16.70;;;8.00;99.90;;;;;;5069397;28;20055;-90
2024/01/31 11:22:14;;;;;;;27.95;17.02;;;8.10;99.90;;;;;;5067745;28;20040;-88
2024/01/31 11:24:59;;;;;;;29.00;16.42;;;8.10;99.90;;;;;;5065555;28;20159;-86
2024/01/31 11:27:26;;;;;;;33.10;17.23;;;8.00;99.90;;;;;;5069035;28;20847;-87
2024/01/31 11:29:52;;;;;;;27.63;16.17;;;8.00;99.90;;;;;;5068218;28;20390;-86
2024/01/31 11:32:19;;;;;;;22.77;14.63;;;8.10;99.90;;;;;;5074089;28;20027;-86
2024/01/31 11:34:44;;;;;;;19.50;13.30;;;8.00;99.90;;;;;;5073109;28;20020;-87
2024/01/31 11:37:10;;;;;;;17.00;12.02;;;8.60;99.90;;;;;;5067856;28;20052;-85
2024/01/31 11:39:36;;;;;;;16.83;11.70;;;7.90;99.90;;;;;;5052590;28;20021;-85
2024/01/31 11:42:02;;;;;;;15.10;11.40;;;8.00;99.90;;;;;;5069403;28;20276;-85
2024/01/31 11:44:29;;;;;;;15.50;12.27;;;8.00;99.90;;;;;;5070891;28;20043;-87
2024/01/31 11:46:55;;;;;;;17.58;12.32;;;8.00;99.90;;;;;;5074135;28;20029;-86
2024/01/31 11:49:22;;;;;;;17.80;12.63;;;8.00;99.90;;;;;;5073352;28;20360;-86
2024/01/31 11:51:48;;;;;;;14.52;10.75;;;8.00;99.90;;;;;;5067319;28;20035;-87
2024/01/31 11:54:14;;;;;;;17.98;11.65;;;9.00;99.90;;;;;;5054711;28;20021;-85
2024/01/31 11:56:40;;;;;;;15.90;11.02;;;8.90;99.90;;;;;;5060435;28;20029;-85
2024/01/31 11:59:09;;;;;;;13.82;10.52;;;9.40;99.90;;;;;;5054311;28;20017;-84
2024/01/31 12:01:35;;;;;;;18.83;11.90;;;8.00;99.90;;;;;;5054323;28;20029;-87
2024/01/31 12:04:04;;;;;;;17.15;11.07;;;8.00;99.90;;;;;;5058789;28;20028;-84
2024/01/31 12:06:30;;;;;;;16.88;11.75;;;8.00;99.90;;;;;;5064318;28;20036;-86
2024/01/31 12:08:56;;;;;;;17.73;11.65;;;8.00;99.90;;;;;;5069215;28;20036;-86
2024/01/31 12:11:22;;;;;;;14.63;9.98;;;8.00;99.90;;;;;;5056414;28;20044;-85
2024/01/31 12:13:47;;;;;;;10.30;8.00;;;8.90;99.90;;;;;;5060024;28;20081;-84
2024/01/31 12:16:13;;;;;;;9.25;8.07;;;8.50;99.90;;;;;;5070270;28;20028;-85
2024/01/31 12:18:40;;;;;;;9.05;8.20;;;7.90;99.90;;;;;;5051737;28;20029;-85
2024/01/31 12:21:10;;;;;;;9.60;8.35;;;7.90;99.90;;;;;;5052233;28;20372;-85
2024/01/31 12:23:35;;;;;;;9.73;8.30;;;8.00;99.90;;;;;;5051487;28;20048;-85
2024/01/31 12:26:02;;;;;;;10.20;7.85;;;7.90;99.90;;;;;;5055094;28;20025;-84
2024/01/31 12:28:27;;;;;;;10.70;8.02;;;8.00;99.90;;;;;;5052769;28;20036;-85
2024/01/31 12:30:53;;;;;;;11.38;7.60;;;8.00;99.90;;;;;;5073520;28;20028;-85
2024/01/31 12:33:19;;;;;;;11.73;7.88;;;8.00;99.90;;;;;;5072875;28;20027;-85
2024/01/31 12:35:44;;;;;;;9.75;7.15;;;8.00;99.90;;;;;;5073441;28;20108;-85
2024/01/31 12:38:11;;;;;;;8.07;7.30;;;8.10;99.90;;;;;;5058392;28;20033;-86
2024/01/31 12:40:38;;;;;;;9.45;7.55;;;8.20;99.90;;;;;;5044617;28;20072;-86
2024/01/31 12:43:04;;;;;;;9.15;6.45;;;8.20;99.90;;;;;;5068977;28;20056;-86
2024/01/31 12:45:30;;;;;;;14.32;7.05;;;8.90;99.90;;;;;;5068004;28;20423;-87